Terminal Aerodrome Forecast
Issued by NWS

Home | Current Version | Previous Version | Text Only | Print | Product List | Glossary On
Versions: 1 2 3 4 5 6 7 8 9 10 11 12 13 14 15 16 17 18 19 20 21 22 23 24
000
FTUS46 KLOX 231400 AAB
TAFSBA
TAF AMD
KSBA 231405Z 2314/2412 21003KT 2SM BR OVC005
     FM231500 VRB03KT 1SM BR OVC002
     FM231600 16006KT 5SM BR BKN012
     FM232000 23008KT P6SM SCT015
     FM240500 VRB05KT P6SM BKN008
     FM241100 VRB03KT 6SM BR OVC005=

USA.gov is the U.S. government's official web portal to all federal, state and local government web resources and services.